Aviation Digital Data Service (ADDS)

Output produced by METARs form (1511 UTC 20 March 2019)
found at http://www.aviationweather.gov/metar/data/
 
METAR text: CYXE 201500Z 24006KT 15SM FEW300 M01/M03 A3015 RMK CI2 SLP240
Conditions at: CYXE (SASKATOON AIRPOR, SK, CA) observed 1500 UTC 20 March 2019
Temperature: -1.0°C (30°F)
Dewpoint: -3.0°C (27°F) [RH = 86%]
Pressure (altimeter): 30.15 inches Hg (1021.1 mb)
[Sea-level pressure: 1024.0 mb]
Winds: from the WSW (240 degrees) at 7 MPH (6 knots; 3.1 m/s)
Visibility: 15 miles (24 km)
Ceiling: at least 12,000 feet AGL
Clouds: few clouds at 30000 feet AGL
Weather: no significant weather observed at this time

METAR text: CYXE 201400Z 21006KT 12SM FEW300 M03/M04 A3016 RMK CI1 SLP242
Conditions at: CYXE (SASKATOON AIRPOR, SK, CA) observed 1400 UTC 20 March 2019
Temperature: -3.0°C (27°F)
Dewpoint: -4.0°C (25°F) [RH = 93%]
Pressure (altimeter): 30.16 inches Hg (1021.4 mb)
[Sea-level pressure: 1024.2 mb]
Winds: from the SSW (210 degrees) at 7 MPH (6 knots; 3.1 m/s)
Visibility: 12 miles (19 km)
Ceiling: at least 12,000 feet AGL
Clouds: few clouds at 30000 feet AGL
Weather: no significant weather observed at this time

METAR text: CYXE 201300Z 21005KT 12SM SKC M03/M05 A3014 RMK SLP238
Conditions at: CYXE (SASKATOON AIRPOR, SK, CA) observed 1300 UTC 20 March 2019
Temperature: -3.0°C (27°F)
Dewpoint: -5.0°C (23°F) [RH = 86%]
Pressure (altimeter): 30.14 inches Hg (1020.7 mb)
[Sea-level pressure: 1023.8 mb]
Winds: from the SSW (210 degrees) at 6 MPH (5 knots; 2.6 m/s)
Visibility: 12 miles (19 km)
Ceiling: at least 12,000 feet AGL
Clouds: clear skies
Weather: no significant weather observed at this time

METAR text: CYXE 201200Z 19006KT 15SM SKC M04/M05 A3014 RMK SLP233
Conditions at: CYXE (SASKATOON AIRPOR, SK, CA) observed 1200 UTC 20 March 2019
Temperature: -4.0°C (25°F)
Dewpoint: -5.0°C (23°F) [RH = 93%]
Pressure (altimeter): 30.14 inches Hg (1020.7 mb)
[Sea-level pressure: 1023.3 mb]
Winds: from the S (190 degrees) at 7 MPH (6 knots; 3.1 m/s)
Visibility: 15 miles (24 km)
Ceiling: at least 12,000 feet AGL
Clouds: clear skies
Weather: no significant weather observed at this time

METAR text: CYXE 201100Z 20005KT 15SM SKC M03/M04 A3013 RMK SLP230
Conditions at: CYXE (SASKATOON AIRPOR, SK, CA) observed 1100 UTC 20 March 2019
Temperature: -3.0°C (27°F)
Dewpoint: -4.0°C (25°F) [RH = 93%]
Pressure (altimeter): 30.13 inches Hg (1020.4 mb)
[Sea-level pressure: 1023.0 mb]
Winds: from the SSW (200 degrees) at 6 MPH (5 knots; 2.6 m/s)
Visibility: 15 miles (24 km)
Ceiling: at least 12,000 feet AGL
Clouds: clear skies
Weather: no significant weather observed at this time

METAR text: CYXE 201000Z 23007KT 15SM SKC M03/M04 A3013 RMK SLP230
Conditions at: CYXE (SASKATOON AIRPOR, SK, CA) observed 1000 UTC 20 March 2019
Temperature: -3.0°C (27°F)
Dewpoint: -4.0°C (25°F) [RH = 93%]
Pressure (altimeter): 30.13 inches Hg (1020.4 mb)
[Sea-level pressure: 1023.0 mb]
Winds: from the SW (230 degrees) at 8 MPH (7 knots; 3.6 m/s)
Visibility: 15 miles (24 km)
Ceiling: at least 12,000 feet AGL
Clouds: clear skies
Weather: no significant weather observed at this time

METAR text: CYXE 200900Z 23005KT 15SM SKC M03/M04 A3013 RMK SLP230
Conditions at: CYXE (SASKATOON AIRPOR, SK, CA) observed 0900 UTC 20 March 2019
Temperature: -3.0°C (27°F)
Dewpoint: -4.0°C (25°F) [RH = 93%]
Pressure (altimeter): 30.13 inches Hg (1020.4 mb)
[Sea-level pressure: 1023.0 mb]
Winds: from the SW (230 degrees) at 6 MPH (5 knots; 2.6 m/s)
Visibility: 15 miles (24 km)
Ceiling: at least 12,000 feet AGL
Clouds: clear skies
Weather: no significant weather observed at this time

METAR text: CYXE 200800Z 26006KT 15SM SKC M02/M03 A3012 RMK SLP227
Conditions at: CYXE (SASKATOON AIRPOR, SK, CA) observed 0800 UTC 20 March 2019
Temperature: -2.0°C (28°F)
Dewpoint: -3.0°C (27°F) [RH = 93%]
Pressure (altimeter): 30.12 inches Hg (1020.1 mb)
[Sea-level pressure: 1022.7 mb]
Winds: from the W (260 degrees) at 7 MPH (6 knots; 3.1 m/s)
Visibility: 15 miles (24 km)
Ceiling: at least 12,000 feet AGL
Clouds: clear skies
Weather: no significant weather observed at this time

METAR text: CYXE 200700Z 26005KT 15SM SKC M02/M03 A3012 RMK SLP225
Conditions at: CYXE (SASKATOON AIRPOR, SK, CA) observed 0700 UTC 20 March 2019
Temperature: -2.0°C (28°F)
Dewpoint: -3.0°C (27°F) [RH = 93%]
Pressure (altimeter): 30.12 inches Hg (1020.1 mb)
[Sea-level pressure: 1022.5 mb]
Winds: from the W (260 degrees) at 6 MPH (5 knots; 2.6 m/s)
Visibility: 15 miles (24 km)
Ceiling: at least 12,000 feet AGL
Clouds: clear skies
Weather: no significant weather observed at this time

METAR text: CYXE 200600Z 26005KT 15SM SKC M00/M03 A3012 RMK SLP225
Conditions at: CYXE (SASKATOON AIRPOR, SK, CA) observed 0600 UTC 20 March 2019
Temperature: 0.0°C (32°F)
Dewpoint: -3.0°C (27°F) [RH = 80%]
Pressure (altimeter): 30.12 inches Hg (1020.1 mb)
[Sea-level pressure: 1022.5 mb]
Winds: from the W (260 degrees) at 6 MPH (5 knots; 2.6 m/s)
Visibility: 15 miles (24 km)
Ceiling: at least 12,000 feet AGL
Clouds: clear skies
Weather: no significant weather observed at this time

METAR text: CYXE 200500Z 28007KT 15SM SKC 00/M02 A3010 RMK SLP221
Conditions at: CYXE (SASKATOON AIRPOR, SK, CA) observed 0500 UTC 20 March 2019
Temperature: 0.0°C (32°F)
Dewpoint: -2.0°C (28°F) [RH = 86%]
Pressure (altimeter): 30.10 inches Hg (1019.4 mb)
[Sea-level pressure: 1022.1 mb]
Winds: from the W (280 degrees) at 8 MPH (7 knots; 3.6 m/s)
Visibility: 15 miles (24 km)
Ceiling: at least 12,000 feet AGL
Clouds: clear skies
Weather: no significant weather observed at this time

METAR text: CYXE 200400Z 28005KT 15SM SKC 01/M01 A3009 RMK SLP218
Conditions at: CYXE (SASKATOON AIRPOR, SK, CA) observed 0400 UTC 20 March 2019
Temperature: 1.0°C (34°F)
Dewpoint: -1.0°C (30°F) [RH = 86%]
Pressure (altimeter): 30.09 inches Hg (1019.0 mb)
[Sea-level pressure: 1021.8 mb]
Winds: from the W (280 degrees) at 6 MPH (5 knots; 2.6 m/s)
Visibility: 15 miles (24 km)
Ceiling: at least 12,000 feet AGL
Clouds: clear skies
Weather: no significant weather observed at this time

METAR text: CYXE 200300Z 30010KT 15SM SKC 02/M01 A3008 RMK SLP214
Conditions at: CYXE (SASKATOON AIRPOR, SK, CA) observed 0300 UTC 20 March 2019
Temperature: 2.0°C (36°F)
Dewpoint: -1.0°C (30°F) [RH = 80%]
Pressure (altimeter): 30.08 inches Hg (1018.7 mb)
[Sea-level pressure: 1021.4 mb]
Winds: from the WNW (300 degrees) at 12 MPH (10 knots; 5.1 m/s)
Visibility: 15 miles (24 km)
Ceiling: at least 12,000 feet AGL
Clouds: clear skies
Weather: no significant weather observed at this time

METAR text: CYXE 200200Z 29010KT 15SM FEW280 02/M01 A3006 RMK CI1 SLP210
Conditions at: CYXE (SASKATOON AIRPOR, SK, CA) observed 0200 UTC 20 March 2019
Temperature: 2.0°C (36°F)
Dewpoint: -1.0°C (30°F) [RH = 80%]
Pressure (altimeter): 30.06 inches Hg (1018.0 mb)
[Sea-level pressure: 1021.0 mb]
Winds: from the WNW (290 degrees) at 12 MPH (10 knots; 5.1 m/s)
Visibility: 15 miles (24 km)
Ceiling: at least 12,000 feet AGL
Clouds: few clouds at 28000 feet AGL
Weather: no significant weather observed at this time

METAR text: CYXE 200100Z 29009KT 15SM FEW280 03/M01 A3006 RMK CI2 SLP210
Conditions at: CYXE (SASKATOON AIRPOR, SK, CA) observed 0100 UTC 20 March 2019
Temperature: 3.0°C (37°F)
Dewpoint: -1.0°C (30°F) [RH = 75%]
Pressure (altimeter): 30.06 inches Hg (1018.0 mb)
[Sea-level pressure: 1021.0 mb]
Winds: from the WNW (290 degrees) at 10 MPH (9 knots; 4.6 m/s)
Visibility: 15 miles (24 km)
Ceiling: at least 12,000 feet AGL
Clouds: few clouds at 28000 feet AGL
Weather: no significant weather observed at this time

METAR text: CYXE 200000Z 29010KT 15SM FEW280 05/00 A3005 RMK CI1 SLP204
Conditions at: CYXE (SASKATOON AIRPOR, SK, CA) observed 0000 UTC 20 March 2019
Temperature: 5.0°C (41°F)
Dewpoint: 0.0°C (32°F) [RH = 70%]
Pressure (altimeter): 30.05 inches Hg (1017.7 mb)
[Sea-level pressure: 1020.4 mb]
Winds: from the WNW (290 degrees) at 12 MPH (10 knots; 5.1 m/s)
Visibility: 15 miles (24 km)
Ceiling: at least 12,000 feet AGL
Clouds: few clouds at 28000 feet AGL
Weather: no significant weather observed at this time

METAR text: CYXE 192300Z 28008KT 15SM FEW280 06/01 A3005 RMK CI1 SLP201
Conditions at: CYXE (SASKATOON AIRPOR, SK, CA) observed 2300 UTC 19 March 2019
Temperature: 6.0°C (43°F)
Dewpoint: 1.0°C (34°F) [RH = 70%]
Pressure (altimeter): 30.05 inches Hg (1017.7 mb)
[Sea-level pressure: 1020.1 mb]
Winds: from the W (280 degrees) at 9 MPH (8 knots; 4.1 m/s)
Visibility: 15 miles (24 km)
Ceiling: at least 12,000 feet AGL
Clouds: few clouds at 28000 feet AGL
Weather: no significant weather observed at this time

METAR text: CYXE 192200Z 29011KT 15SM FEW280 07/01 A3004 RMK CI1 SLP200
Conditions at: CYXE (SASKATOON AIRPOR, SK, CA) observed 2200 UTC 19 March 2019
Temperature: 7.0°C (45°F)
Dewpoint: 1.0°C (34°F) [RH = 66%]
Pressure (altimeter): 30.04 inches Hg (1017.4 mb)
[Sea-level pressure: 1020.0 mb]
Winds: from the WNW (290 degrees) at 13 MPH (11 knots; 5.7 m/s)
Visibility: 15 miles (24 km)
Ceiling: at least 12,000 feet AGL
Clouds: few clouds at 28000 feet AGL
Weather: no significant weather observed at this time

METAR text: CYXE 192100Z 28013KT 15SM SCT280 06/00 A3004 RMK CI3 SLP200
Conditions at: CYXE (SASKATOON AIRPOR, SK, CA) observed 2100 UTC 19 March 2019
Temperature: 6.0°C (43°F)
Dewpoint: 0.0°C (32°F) [RH = 65%]
Pressure (altimeter): 30.04 inches Hg (1017.4 mb)
[Sea-level pressure: 1020.0 mb]
Winds: from the W (280 degrees) at 15 MPH (13 knots; 6.7 m/s)
Visibility: 15 miles (24 km)
Ceiling: at least 12,000 feet AGL
Clouds: scattered clouds at 28000 feet AGL
Weather: no significant weather observed at this time

METAR text: CYXE 192000Z 30008KT 15SM SCT280 06/00 A3007 RMK CI3 SLP209
Conditions at: CYXE (SASKATOON AIRPOR, SK, CA) observed 2000 UTC 19 March 2019
Temperature: 6.0°C (43°F)
Dewpoint: 0.0°C (32°F) [RH = 65%]
Pressure (altimeter): 30.07 inches Hg (1018.4 mb)
[Sea-level pressure: 1020.9 mb]
Winds: from the WNW (300 degrees) at 9 MPH (8 knots; 4.1 m/s)
Visibility: 15 miles (24 km)
Ceiling: at least 12,000 feet AGL
Clouds: scattered clouds at 28000 feet AGL
Weather: no significant weather observed at this time

METAR text: CYXE 191900Z 27007KT 15SM FEW280 06/01 A3006 RMK CI2 SLP207
Conditions at: CYXE (SASKATOON AIRPOR, SK, CA) observed 1900 UTC 19 March 2019
Temperature: 6.0°C (43°F)
Dewpoint: 1.0°C (34°F) [RH = 70%]
Pressure (altimeter): 30.06 inches Hg (1018.0 mb)
[Sea-level pressure: 1020.7 mb]
Winds: from the W (270 degrees) at 8 MPH (7 knots; 3.6 m/s)
Visibility: 15 miles (24 km)
Ceiling: at least 12,000 feet AGL
Clouds: few clouds at 28000 feet AGL
Weather: no significant weather observed at this time

METAR text: CYXE 191800Z 24011KT 15SM SCT280 05/M01 A3006 RMK CI3 SLP208
Conditions at: CYXE (SASKATOON AIRPOR, SK, CA) observed 1800 UTC 19 March 2019
Temperature: 5.0°C (41°F)
Dewpoint: -1.0°C (30°F) [RH = 65%]
Pressure (altimeter): 30.06 inches Hg (1018.0 mb)
[Sea-level pressure: 1020.8 mb]
Winds: from the WSW (240 degrees) at 13 MPH (11 knots; 5.7 m/s)
Visibility: 15 miles (24 km)
Ceiling: at least 12,000 feet AGL
Clouds: scattered clouds at 28000 feet AGL
Weather: no significant weather observed at this time

METAR text: CYXE 191700Z 23009KT 15SM BKN280 04/M01 A3007 RMK CI5 SLP210
Conditions at: CYXE (SASKATOON AIRPOR, SK, CA) observed 1700 UTC 19 March 2019
Temperature: 4.0°C (39°F)
Dewpoint: -1.0°C (30°F) [RH = 70%]
Pressure (altimeter): 30.07 inches Hg (1018.4 mb)
[Sea-level pressure: 1021.0 mb]
Winds: from the SW (230 degrees) at 10 MPH (9 knots; 4.6 m/s)
Visibility: 15 miles (24 km)
Ceiling: 28000 feet AGL
Clouds: broken clouds at 28000 feet AGL
Weather: no significant weather observed at this time

METAR text: CYXE 191600Z 23011KT 15SM BKN280 02/M02 A3007 RMK CI6 SLP213
Conditions at: CYXE (SASKATOON AIRPOR, SK, CA) observed 1600 UTC 19 March 2019
Temperature: 2.0°C (36°F)
Dewpoint: -2.0°C (28°F) [RH = 75%]
Pressure (altimeter): 30.07 inches Hg (1018.4 mb)
[Sea-level pressure: 1021.3 mb]
Winds: from the SW (230 degrees) at 13 MPH (11 knots; 5.7 m/s)
Visibility: 15 miles (24 km)
Ceiling: 28000 feet AGL
Clouds: broken clouds at 28000 feet AGL
Weather: no significant weather observed at this time

METAR text: CYXE 191500Z 22013KT 15SM BKN280 M01/M03 A3008 RMK CI5 SLP215
Conditions at: CYXE (SASKATOON AIRPOR, SK, CA) observed 1500 UTC 19 March 2019
Temperature: -1.0°C (30°F)
Dewpoint: -3.0°C (27°F) [RH = 86%]
Pressure (altimeter): 30.08 inches Hg (1018.7 mb)
[Sea-level pressure: 1021.5 mb]
Winds: from the SW (220 degrees) at 15 MPH (13 knots; 6.7 m/s)
Visibility: 15 miles (24 km)
Ceiling: 28000 feet AGL
Clouds: broken clouds at 28000 feet AGL
Weather: no significant weather observed at this time

METAR text: CYXE 191400Z 22012KT 15SM FEW280 M02/M05 A3009 RMK CI2 SLP222
Conditions at: CYXE (SASKATOON AIRPOR, SK, CA) observed 1400 UTC 19 March 2019
Temperature: -2.0°C (28°F)
Dewpoint: -5.0°C (23°F) [RH = 80%]
Pressure (altimeter): 30.09 inches Hg (1019.0 mb)
[Sea-level pressure: 1022.2 mb]
Winds: from the SW (220 degrees) at 14 MPH (12 knots; 6.2 m/s)
Visibility: 15 miles (24 km)
Ceiling: at least 12,000 feet AGL
Clouds: few clouds at 28000 feet AGL
Weather: no significant weather observed at this time

METAR text: CYXE 191300Z 22011KT 15SM FEW280 M04/M05 A3010 RMK CI2 SLP225
Conditions at: CYXE (SASKATOON AIRPOR, SK, CA) observed 1300 UTC 19 March 2019
Temperature: -4.0°C (25°F)
Dewpoint: -5.0°C (23°F) [RH = 93%]
Pressure (altimeter): 30.10 inches Hg (1019.4 mb)
[Sea-level pressure: 1022.5 mb]
Winds: from the SW (220 degrees) at 13 MPH (11 knots; 5.7 m/s)
Visibility: 15 miles (24 km)
Ceiling: at least 12,000 feet AGL
Clouds: few clouds at 28000 feet AGL
Weather: no significant weather observed at this time

METAR text: CYXE 191200Z 24007KT 15SM FEW240 M04/M06 A3013 RMK CI2 SLP232
Conditions at: CYXE (SASKATOON AIRPOR, SK, CA) observed 1200 UTC 19 March 2019
Temperature: -4.0°C (25°F)
Dewpoint: -6.0°C (21°F) [RH = 86%]
Pressure (altimeter): 30.13 inches Hg (1020.4 mb)
[Sea-level pressure: 1023.2 mb]
Winds: from the WSW (240 degrees) at 8 MPH (7 knots; 3.6 m/s)
Visibility: 15 miles (24 km)
Ceiling: at least 12,000 feet AGL
Clouds: few clouds at 24000 feet AGL
Weather: no significant weather observed at this time

METAR text: CYXE 191100Z 22011KT 15SM FEW240 M03/M05 A3013 RMK CI2 SLP233
Conditions at: CYXE (SASKATOON AIRPOR, SK, CA) observed 1100 UTC 19 March 2019
Temperature: -3.0°C (27°F)
Dewpoint: -5.0°C (23°F) [RH = 86%]
Pressure (altimeter): 30.13 inches Hg (1020.4 mb)
[Sea-level pressure: 1023.3 mb]
Winds: from the SW (220 degrees) at 13 MPH (11 knots; 5.7 m/s)
Visibility: 15 miles (24 km)
Ceiling: at least 12,000 feet AGL
Clouds: few clouds at 24000 feet AGL
Weather: no significant weather observed at this time

METAR text: CYXE 191000Z 22010KT 15SM SCT240 M03/M05 A3015 RMK CI3 SLP239
Conditions at: CYXE (SASKATOON AIRPOR, SK, CA) observed 1000 UTC 19 March 2019
Temperature: -3.0°C (27°F)
Dewpoint: -5.0°C (23°F) [RH = 86%]
Pressure (altimeter): 30.15 inches Hg (1021.1 mb)
[Sea-level pressure: 1023.9 mb]
Winds: from the SW (220 degrees) at 12 MPH (10 knots; 5.1 m/s)
Visibility: 15 miles (24 km)
Ceiling: at least 12,000 feet AGL
Clouds: scattered clouds at 24000 feet AGL
Weather: no significant weather observed at this time

METAR text: CYXE 190900Z 21008KT 15SM SKC M03/M05 A3017 RMK SLP246
Conditions at: CYXE (SASKATOON AIRPOR, SK, CA) observed 0900 UTC 19 March 2019
Temperature: -3.0°C (27°F)
Dewpoint: -5.0°C (23°F) [RH = 86%]
Pressure (altimeter): 30.17 inches Hg (1021.8 mb)
[Sea-level pressure: 1024.6 mb]
Winds: from the SSW (210 degrees) at 9 MPH (8 knots; 4.1 m/s)
Visibility: 15 miles (24 km)
Ceiling: at least 12,000 feet AGL
Clouds: clear skies
Weather: no significant weather observed at this time

METAR text: CYXE 190800Z 22008KT 15SM SKC M04/M05 A3018 RMK SLP249
Conditions at: CYXE (SASKATOON AIRPOR, SK, CA) observed 0800 UTC 19 March 2019
Temperature: -4.0°C (25°F)
Dewpoint: -5.0°C (23°F) [RH = 93%]
Pressure (altimeter): 30.18 inches Hg (1022.1 mb)
[Sea-level pressure: 1024.9 mb]
Winds: from the SW (220 degrees) at 9 MPH (8 knots; 4.1 m/s)
Visibility: 15 miles (24 km)
Ceiling: at least 12,000 feet AGL
Clouds: clear skies
Weather: no significant weather observed at this time

METAR text: CYXE 190700Z 24007KT 15SM SKC M04/M06 A3019 RMK SLP254
Conditions at: CYXE (SASKATOON AIRPOR, SK, CA) observed 0700 UTC 19 March 2019
Temperature: -4.0°C (25°F)
Dewpoint: -6.0°C (21°F) [RH = 86%]
Pressure (altimeter): 30.19 inches Hg (1022.4 mb)
[Sea-level pressure: 1025.4 mb]
Winds: from the WSW (240 degrees) at 8 MPH (7 knots; 3.6 m/s)
Visibility: 15 miles (24 km)
Ceiling: at least 12,000 feet AGL
Clouds: clear skies
Weather: no significant weather observed at this time

METAR text: CYXE 190600Z 23008KT 15SM SKC M04/M05 A3018 RMK SLP251
Conditions at: CYXE (SASKATOON AIRPOR, SK, CA) observed 0600 UTC 19 March 2019
Temperature: -4.0°C (25°F)
Dewpoint: -5.0°C (23°F) [RH = 93%]
Pressure (altimeter): 30.18 inches Hg (1022.1 mb)
[Sea-level pressure: 1025.1 mb]
Winds: from the SW (230 degrees) at 9 MPH (8 knots; 4.1 m/s)
Visibility: 15 miles (24 km)
Ceiling: at least 12,000 feet AGL
Clouds: clear skies
Weather: no significant weather observed at this time

METAR text: CYXE 190500Z 26008KT 15SM SKC M03/M05 A3018 RMK SLP253
Conditions at: CYXE (SASKATOON AIRPOR, SK, CA) observed 0500 UTC 19 March 2019
Temperature: -3.0°C (27°F)
Dewpoint: -5.0°C (23°F) [RH = 86%]
Pressure (altimeter): 30.18 inches Hg (1022.1 mb)
[Sea-level pressure: 1025.3 mb]
Winds: from the W (260 degrees) at 9 MPH (8 knots; 4.1 m/s)
Visibility: 15 miles (24 km)
Ceiling: at least 12,000 feet AGL
Clouds: clear skies
Weather: no significant weather observed at this time

METAR text: CYXE 190400Z 27009KT 15SM SKC M02/M04 A3018 RMK SLP253
Conditions at: CYXE (SASKATOON AIRPOR, SK, CA) observed 0400 UTC 19 March 2019
Temperature: -2.0°C (28°F)
Dewpoint: -4.0°C (25°F) [RH = 86%]
Pressure (altimeter): 30.18 inches Hg (1022.1 mb)
[Sea-level pressure: 1025.3 mb]
Winds: from the W (270 degrees) at 10 MPH (9 knots; 4.6 m/s)
Visibility: 15 miles (24 km)
Ceiling: at least 12,000 feet AGL
Clouds: clear skies
Weather: no significant weather observed at this time

Forecast for: CYXE (SASKATOON AIRPOR, SK, CA)
Text: TAF CYXE 201138Z 2012/2112 20005KT P6SM SKC
Forecast period: 1200 UTC 20 March 2019 to 1000 UTC 21 March 2019
Forecast type: FROM: standard forecast or significant change
Winds: from the SSW (200 degrees) at 6 MPH (5 knots; 2.6 m/s)
Visibility: 6 or more miles 10+ km)
Clouds: clear skies
Weather: no significant weather forecast for this period
Text: FM211000 36006KT P6SM FEW010 RMK NXT FCST BY 201800Z
Forecast period: 1000 to 1200 UTC 21 March 2019
Forecast type: FROM: standard forecast or significant change
Winds: from the N (360 degrees) at 7 MPH (6 knots; 3.1 m/s)
Visibility: 6 or more miles 10+ km)
Ceiling: at least 12,000 feet AGL
Clouds: few clouds at 1000 feet AGL
Weather: no significant weather forecast for this period